createdAt,value
2018-02-23T00:00:36.978Z,54.80
2018-02-23T00:03:07.830Z,54.90
2018-02-23T00:05:38.992Z,55.00
2018-02-23T00:08:07.198Z,55.00
2018-02-23T00:10:38.242Z,55.00
2018-02-23T00:16:00.134Z,55.10
2018-02-23T00:18:27.562Z,55.10
2018-02-23T00:20:55.186Z,55.10
2018-02-23T00:23:28.039Z,55.20
2018-02-23T00:25:56.370Z,55.20
2018-02-23T00:28:27.398Z,55.10
2018-02-23T00:30:57.854Z,55.50
2018-02-23T00:33:31.623Z,55.40
2018-02-23T00:36:04.361Z,55.70
2018-02-23T00:38:34.792Z,55.70
2018-02-23T00:41:06.119Z,55.70
2018-02-23T00:43:37.370Z,55.70
2018-02-23T00:46:08.361Z,55.60
2018-02-23T00:48:37.696Z,55.60
2018-02-23T00:51:12.347Z,55.60
2018-02-23T00:53:39.809Z,55.50
2018-02-23T00:56:07.269Z,55.50
2018-02-23T00:58:34.766Z,55.70
2018-02-23T01:01:02.255Z,55.70
2018-02-23T01:03:29.731Z,55.90
2018-02-23T01:05:57.983Z,56.90
2018-02-23T01:08:25.413Z,56.20
2018-02-23T01:10:52.852Z,56.30
2018-02-23T01:13:20.297Z,56.30
2018-02-23T01:15:48.510Z,56.50
2018-02-23T01:18:15.957Z,56.40
2018-02-23T01:20:43.396Z,56.40
2018-02-23T01:23:11.612Z,56.50
2018-02-23T01:25:39.172Z,56.40
2018-02-23T01:28:06.596Z,56.50
2018-02-23T01:30:34.801Z,56.40
2018-02-23T01:33:02.252Z,56.40
2018-02-23T01:35:29.693Z,56.40
2018-02-23T01:37:57.148Z,56.40
2018-02-23T01:40:24.597Z,56.50
2018-02-23T01:42:52.054Z,56.50
2018-02-23T01:45:19.497Z,56.50
2018-02-23T01:47:46.952Z,56.50
2018-02-23T01:50:14.396Z,56.50
2018-02-23T01:52:41.852Z,56.50
2018-02-23T01:55:09.308Z,56.50
2018-02-23T01:57:37.537Z,56.50
2018-02-23T02:00:04.975Z,56.40
2018-02-23T02:02:32.417Z,56.40
2018-02-23T02:04:59.861Z,56.30
2018-02-23T02:07:28.068Z,56.30
2018-02-23T02:09:55.516Z,56.30
2018-02-23T02:12:23.720Z,56.40
2018-02-23T02:14:51.182Z,56.40
2018-02-23T02:17:18.620Z,56.50
2018-02-23T02:19:46.838Z,56.60
2018-02-23T02:22:14.273Z,56.60
2018-02-23T02:24:41.747Z,56.70
2018-02-23T02:27:09.175Z,56.60
2018-02-23T02:29:37.386Z,56.70
2018-02-23T02:32:04.823Z,56.70
2018-02-23T02:34:33.031Z,56.80
2018-02-23T02:37:00.489Z,56.70
2018-02-23T02:39:27.929Z,56.70
2018-02-23T02:41:56.139Z,56.80
2018-02-23T02:44:23.581Z,56.80
2018-02-23T02:46:51.031Z,56.90
2018-02-23T02:49:19.253Z,56.80
2018-02-23T02:51:46.688Z,56.70
2018-02-23T02:54:14.165Z,56.80
2018-02-23T02:56:41.613Z,56.80
2018-02-23T02:59:09.057Z,56.90
2018-02-23T03:01:37.257Z,56.90
2018-02-23T03:04:04.714Z,56.90
2018-02-23T03:06:32.176Z,56.90
2018-02-23T03:08:59.624Z,56.90
2018-02-23T03:11:27.829Z,57.00
2018-02-23T03:13:55.264Z,56.90
2018-02-23T03:16:23.488Z,57.10
2018-02-23T03:18:50.936Z,57.10
2018-02-23T03:21:18.392Z,57.00
2018-02-23T03:23:45.840Z,57.00
2018-02-23T03:26:14.144Z,57.00
2018-02-23T03:28:41.581Z,57.10
2018-02-23T03:31:09.788Z,57.10
2018-02-23T03:33:37.224Z,57.10
2018-02-23T03:36:04.666Z,57.40
2018-02-23T03:38:32.123Z,57.60
2018-02-23T03:40:59.577Z,58.20
2018-02-23T03:43:27.021Z,57.60
2018-02-23T03:45:54.462Z,57.50
2018-02-23T03:48:21.924Z,57.40
2018-02-23T03:50:49.365Z,57.20
2018-02-23T03:53:16.808Z,57.20
2018-02-23T03:55:45.046Z,57.40
2018-02-23T03:58:12.486Z,57.40
2018-02-23T04:00:39.925Z,57.30
2018-02-23T04:03:07.366Z,57.50
2018-02-23T04:05:34.801Z,57.70
2018-02-23T04:08:02.230Z,57.80
2018-02-23T04:10:29.674Z,57.90
2018-02-23T04:12:57.105Z,57.80
2018-02-23T04:15:24.553Z,57.80
2018-02-23T04:17:51.997Z,58.60
2018-02-23T04:20:19.437Z,58.00
2018-02-23T04:22:46.873Z,58.10
2018-02-23T04:25:15.082Z,58.30
2018-02-23T04:27:42.518Z,58.30
2018-02-23T04:30:10.725Z,58.20
2018-02-23T04:32:38.158Z,58.20
2018-02-23T04:35:06.384Z,58.30
2018-02-23T04:37:33.826Z,58.20
2018-02-23T04:40:01.657Z,58.30
2018-02-23T04:42:29.081Z,58.20
2018-02-23T04:44:56.534Z,58.20
2018-02-23T04:47:23.980Z,58.30
2018-02-23T04:49:51.425Z,58.30
2018-02-23T04:52:18.868Z,58.30
2018-02-23T04:54:47.077Z,58.40
2018-02-23T04:57:14.544Z,58.40
2018-02-23T04:59:41.988Z,58.30
2018-02-23T05:02:10.191Z,58.40
2018-02-23T05:04:37.639Z,58.20
2018-02-23T05:07:05.081Z,58.30
2018-02-23T05:09:33.298Z,58.30
2018-02-23T05:12:00.759Z,58.30
2018-02-23T05:14:28.207Z,58.40
2018-02-23T05:16:55.672Z,58.50
2018-02-23T05:19:23.118Z,58.60
2018-02-23T05:21:51.343Z,58.70
2018-02-23T05:24:18.789Z,58.70
2018-02-23T05:26:46.243Z,58.70
2018-02-23T05:29:13.678Z,58.70
2018-02-23T05:31:41.898Z,58.70
2018-02-23T05:34:09.337Z,58.70
2018-02-23T05:36:36.788Z,58.60
2018-02-23T05:39:04.999Z,58.50
2018-02-23T05:41:32.462Z,58.50
2018-02-23T05:43:59.906Z,58.50
2018-02-23T05:46:27.366Z,58.50
2018-02-23T05:48:54.810Z,58.50
2018-02-23T05:51:23.031Z,58.60
2018-02-23T05:53:50.505Z,58.60
2018-02-23T05:56:17.950Z,58.60
2018-02-23T05:58:45.407Z,58.50
2018-02-23T06:01:12.883Z,58.50
2018-02-23T06:03:40.325Z,58.50
2018-02-23T06:06:07.772Z,58.40
2018-02-23T06:08:35.226Z,58.40
2018-02-23T06:11:03.460Z,58.50
2018-02-23T06:13:30.931Z,58.40
2018-02-23T06:16:04.874Z,58.40
2018-02-23T06:18:38.140Z,58.40
2018-02-23T06:21:05.601Z,58.10
2018-02-23T06:23:33.044Z,58.40
2018-02-23T06:26:00.480Z,58.40
2018-02-23T06:28:27.947Z,58.60
2018-02-23T06:30:55.413Z,58.60
2018-02-23T06:33:22.862Z,58.60
2018-02-23T06:35:50.318Z,58.70
2018-02-23T06:38:19.474Z,58.80
2018-02-23T06:40:46.957Z,58.80
2018-02-23T06:43:14.427Z,58.90
2018-02-23T06:45:42.638Z,59.20
2018-02-23T06:48:10.104Z,58.90
2018-02-23T06:50:38.294Z,58.90
2018-02-23T06:53:05.760Z,58.90
2018-02-23T06:55:33.218Z,58.90
2018-02-23T06:58:00.649Z,58.90
2018-02-23T07:00:28.856Z,58.80
2018-02-23T07:02:56.342Z,58.80
2018-02-23T07:05:23.798Z,58.90
2018-02-23T07:07:51.254Z,59.50
2018-02-23T07:10:18.684Z,59.00
2018-02-23T07:12:46.131Z,59.00
2018-02-23T07:15:14.581Z,58.90
2018-02-23T07:17:42.238Z,58.90
2018-02-23T07:20:09.816Z,58.80
2018-02-23T07:22:37.471Z,58.80
2018-02-23T07:25:05.043Z,58.90
2018-02-23T07:27:32.584Z,59.00
2018-02-23T07:30:00.297Z,58.90
2018-02-23T07:32:28.726Z,59.00
2018-02-23T07:34:56.362Z,59.00
2018-02-23T07:37:23.979Z,59.00
2018-02-23T07:39:51.590Z,59.00
2018-02-23T07:42:19.201Z,59.10
2018-02-23T07:44:46.826Z,59.20
2018-02-23T07:47:15.120Z,59.90
2018-02-23T07:49:42.731Z,59.30
2018-02-23T07:52:10.280Z,59.30
2018-02-23T07:54:37.958Z,59.30
2018-02-23T07:57:05.575Z,59.20
2018-02-23T07:59:33.854Z,59.20
2018-02-23T08:02:02.236Z,59.10
2018-02-23T08:04:29.902Z,59.10
2018-02-23T08:06:58.249Z,59.00
2018-02-23T08:09:25.735Z,58.90
2018-02-23T08:11:54.049Z,58.90
2018-02-23T08:14:21.515Z,58.80
2018-02-23T08:16:48.958Z,58.90
2018-02-23T08:19:17.188Z,58.80
2018-02-23T08:21:44.623Z,58.80
2018-02-23T08:24:12.064Z,59.40
2018-02-23T08:26:40.274Z,58.60
2018-02-23T08:29:07.713Z,58.50
2018-02-23T08:31:35.149Z,58.30
2018-02-23T08:34:02.606Z,58.20
2018-02-23T08:36:30.061Z,57.50
2018-02-23T08:38:57.502Z,57.60
2018-02-23T08:41:24.944Z,57.70
2018-02-23T08:43:52.398Z,57.50
2018-02-23T08:46:19.846Z,57.50
2018-02-23T08:48:48.047Z,57.00
2018-02-23T08:51:15.480Z,57.00
2018-02-23T08:53:43.707Z,56.60
2018-02-23T08:56:11.154Z,56.50
2018-02-23T08:58:38.619Z,56.50
2018-02-23T09:01:06.049Z,56.40
2018-02-23T09:03:34.256Z,56.30
2018-02-23T09:06:01.701Z,56.20
2018-02-23T09:08:29.169Z,56.00
2018-02-23T09:10:56.600Z,56.10
2018-02-23T09:13:24.808Z,56.00
2018-02-23T09:15:52.248Z,56.00
2018-02-23T09:18:20.462Z,55.60
2018-02-23T09:20:47.921Z,55.60
2018-02-23T09:23:15.344Z,55.40
2018-02-23T09:25:43.582Z,54.70
2018-02-23T09:28:11.013Z,54.70
2018-02-23T09:30:38.475Z,54.20
2018-02-23T09:33:05.908Z,54.80
2018-02-23T09:35:34.120Z,55.60
2018-02-23T09:38:01.573Z,55.60
2018-02-23T09:40:29.014Z,55.80
2018-02-23T09:42:57.223Z,55.10
2018-02-23T09:45:24.658Z,55.10
2018-02-23T09:47:52.878Z,55.40
2018-02-23T09:50:20.313Z,55.50
2018-02-23T09:52:47.758Z,55.50
2018-02-23T09:55:15.989Z,52.50
2018-02-23T09:57:43.422Z,52.40
2018-02-23T10:00:10.861Z,53.70
2018-02-23T10:02:39.085Z,54.00
2018-02-23T10:05:06.550Z,54.00
2018-02-23T10:07:33.985Z,53.80
2018-02-23T10:10:01.428Z,52.30
2018-02-23T10:12:29.638Z,53.30
2018-02-23T10:14:57.082Z,53.30
2018-02-23T10:17:25.294Z,51.90
2018-02-23T10:19:52.737Z,51.80
2018-02-23T10:22:20.179Z,52.10
2018-02-23T10:24:48.397Z,51.60
2018-02-23T10:27:15.838Z,51.60
2018-02-23T10:29:43.276Z,51.50
2018-02-23T10:32:11.477Z,51.70
2018-02-23T10:34:38.921Z,51.70
2018-02-23T10:37:07.117Z,50.00
2018-02-23T10:39:34.549Z,50.00
2018-02-23T10:42:01.993Z,49.60
2018-02-23T10:44:29.429Z,50.60
2018-02-23T10:46:56.893Z,50.90
2018-02-23T10:49:24.331Z,50.40
2018-02-23T10:51:51.787Z,50.40
2018-02-23T10:54:20.016Z,46.80
2018-02-23T10:56:47.454Z,46.80
2018-02-23T10:59:14.888Z,49.30
2018-02-23T11:01:43.107Z,50.80
2018-02-23T11:04:10.543Z,50.80
2018-02-23T11:06:37.988Z,50.50
2018-02-23T11:09:06.198Z,50.00
2018-02-23T11:11:33.641Z,50.00
2018-02-23T11:14:01.854Z,50.90
2018-02-23T11:16:29.299Z,50.90
2018-02-23T11:18:56.728Z,50.50
2018-02-23T11:21:24.928Z,49.40
2018-02-23T11:23:52.348Z,49.40
2018-02-23T11:26:19.815Z,50.10
2018-02-23T11:28:47.252Z,49.70
2018-02-23T11:31:14.704Z,49.30
2018-02-23T11:33:42.134Z,47.30
2018-02-23T11:36:09.583Z,48.90
2018-02-23T11:38:37.781Z,49.10
2018-02-23T11:41:05.265Z,49.10
2018-02-23T11:43:33.433Z,49.10
2018-02-23T11:46:00.875Z,49.10
2018-02-23T11:48:29.065Z,48.00
2018-02-23T11:50:56.514Z,48.00
2018-02-23T11:53:24.700Z,48.20
2018-02-23T11:55:52.136Z,48.20
2018-02-23T11:58:19.574Z,48.40
2018-02-23T12:00:47.018Z,48.70
2018-02-23T12:03:14.463Z,47.80
2018-02-23T12:05:41.891Z,48.20
2018-02-23T12:08:10.099Z,47.90
2018-02-23T12:10:37.544Z,47.90
2018-02-23T12:13:05.760Z,44.00
2018-02-23T12:15:33.199Z,44.00
2018-02-23T12:18:00.641Z,45.90
2018-02-23T12:20:28.836Z,46.50
2018-02-23T12:22:56.295Z,46.50
2018-02-23T12:25:23.729Z,45.20
2018-02-23T12:27:51.168Z,44.10
2018-02-23T12:30:18.602Z,43.70
2018-02-23T12:32:46.046Z,45.30
2018-02-23T12:35:13.494Z,45.70
2018-02-23T12:37:41.716Z,46.30
2018-02-23T12:40:09.162Z,45.70
2018-02-23T12:42:36.601Z,44.90
2018-02-23T12:45:04.805Z,46.40
2018-02-23T12:47:32.236Z,46.50
2018-02-23T12:50:00.428Z,45.00
2018-02-23T12:52:27.882Z,45.00
2018-02-23T12:54:56.074Z,45.80
2018-02-23T12:57:23.528Z,45.80
2018-02-23T12:59:51.730Z,45.00
2018-02-23T13:02:19.169Z,45.00
2018-02-23T13:04:46.627Z,44.70
2018-02-23T13:07:14.830Z,45.00
2018-02-23T13:09:42.293Z,44.90
2018-02-23T13:12:09.788Z,44.90
2018-02-23T13:14:42.856Z,45.00
2018-02-23T13:17:10.284Z,44.50
2018-02-23T13:19:37.731Z,44.00
2018-02-23T13:22:05.153Z,44.20
2018-02-23T13:24:32.593Z,44.80
2018-02-23T13:27:05.725Z,44.50
2018-02-23T13:29:33.179Z,44.10
2018-02-23T13:32:00.631Z,43.70
2018-02-23T13:34:28.067Z,44.10
2018-02-23T13:36:55.506Z,42.60
2018-02-23T13:39:23.714Z,42.60
2018-02-23T13:41:51.176Z,42.60
2018-02-23T13:44:18.624Z,43.10
2018-02-23T13:46:46.068Z,43.20
2018-02-23T13:49:14.284Z,42.80
2018-02-23T13:51:41.728Z,42.80
2018-02-23T13:54:14.845Z,42.90
2018-02-23T13:56:42.296Z,41.90
2018-02-23T13:59:09.740Z,42.30
2018-02-23T14:01:37.186Z,42.50
2018-02-23T14:04:05.411Z,41.90
2018-02-23T14:06:32.865Z,41.90
2018-02-23T14:09:00.327Z,42.30
2018-02-23T14:11:27.754Z,41.80
2018-02-23T14:13:55.972Z,41.60
2018-02-23T14:16:23.413Z,41.60
2018-02-23T14:18:50.876Z,40.50
2018-02-23T14:21:18.322Z,40.70
2018-02-23T14:23:46.534Z,39.30
2018-02-23T14:26:13.961Z,39.20
2018-02-23T14:28:42.165Z,40.80
2018-02-23T14:31:09.589Z,40.80
2018-02-23T14:33:37.048Z,40.40
2018-02-23T14:36:04.491Z,40.90
2018-02-23T14:38:31.955Z,40.30
2018-02-23T14:40:59.402Z,40.90
2018-02-23T14:43:26.884Z,40.40
2018-02-23T14:45:54.264Z,40.50
2018-02-23T14:48:34.267Z,39.20
2018-02-23T14:51:10.723Z,39.20
2018-02-23T14:53:38.165Z,39.30
2018-02-23T14:56:05.595Z,39.90
2018-02-23T14:58:33.054Z,40.00
2018-02-23T15:01:00.509Z,39.50
2018-02-23T15:03:27.955Z,39.80
2018-02-23T15:05:56.161Z,40.10
2018-02-23T15:08:23.625Z,40.00
2018-02-23T15:10:51.058Z,37.30
2018-02-23T15:13:18.512Z,37.90
2018-02-23T15:15:45.955Z,38.20
2018-02-23T15:18:14.320Z,38.30
2018-02-23T15:20:42.527Z,39.80
2018-02-23T15:23:09.979Z,39.80
2018-02-23T15:25:37.423Z,39.60
2018-02-23T15:28:05.626Z,39.50
2018-02-23T15:30:44.959Z,39.50
2018-02-23T15:33:12.395Z,39.90
2018-02-23T15:35:40.610Z,39.80
2018-02-23T15:38:08.064Z,39.80
2018-02-23T15:40:35.497Z,40.10
2018-02-23T15:43:03.710Z,39.50
2018-02-23T15:45:31.169Z,39.50
2018-02-23T15:47:59.421Z,38.50
2018-02-23T15:53:32.033Z,39.80
2018-02-23T15:55:59.472Z,39.80
2018-02-23T15:58:45.282Z,39.70
2018-02-23T16:01:12.701Z,39.60
2018-02-23T16:03:40.896Z,39.70
2018-02-23T16:06:08.359Z,39.70
2018-02-23T16:08:36.564Z,38.30
2018-02-23T16:11:04.007Z,38.30
2018-02-23T16:13:31.450Z,39.10
2018-02-23T16:16:06.555Z,38.00
2018-02-23T16:18:35.486Z,37.90
2018-02-23T16:21:05.069Z,39.60
2018-02-23T16:23:32.536Z,39.60
2018-02-23T16:26:08.052Z,39.70
2018-02-23T16:28:38.602Z,39.60
2018-02-23T16:31:09.618Z,39.90
2018-02-23T16:33:40.596Z,39.90
2018-02-23T16:36:14.928Z,39.70
2018-02-23T16:39:01.699Z,39.90
2018-02-23T16:41:37.092Z,40.10
2018-02-23T16:44:08.617Z,39.70
2018-02-23T16:46:40.640Z,40.10
2018-02-23T16:49:13.952Z,40.00
2018-02-23T16:51:41.372Z,40.30
2018-02-23T16:54:09.593Z,40.30
2018-02-23T16:56:37.036Z,40.30
2018-02-23T16:59:04.465Z,40.30
2018-02-23T17:01:32.682Z,40.40
2018-02-23T17:04:00.109Z,40.30
2018-02-23T17:06:28.319Z,40.20
2018-02-23T17:08:55.740Z,40.10
2018-02-23T17:11:23.960Z,39.80
2018-02-23T17:13:51.380Z,39.80
2018-02-23T17:16:19.610Z,40.90
2018-02-23T17:18:47.045Z,40.30
2018-02-23T17:21:14.480Z,40.20
2018-02-23T17:23:41.928Z,40.20
2018-02-23T17:26:09.376Z,40.20
2018-02-23T17:28:36.811Z,40.30
2018-02-23T17:31:04.248Z,40.10
2018-02-23T17:33:32.459Z,40.50
2018-02-23T17:35:59.897Z,40.50
2018-02-23T17:38:28.198Z,40.80
2018-02-23T17:40:55.620Z,40.80
2018-02-23T17:43:23.840Z,40.90
2018-02-23T17:45:51.268Z,40.80
2018-02-23T17:48:19.470Z,41.10
2018-02-23T17:50:46.918Z,41.10
2018-02-23T17:53:15.120Z,41.30
2018-02-23T17:55:42.581Z,41.20
2018-02-23T17:58:10.003Z,41.20
2018-02-23T18:00:38.200Z,42.20
2018-02-23T18:03:05.643Z,41.70
2018-02-23T18:05:33.854Z,42.00
2018-02-23T18:08:01.284Z,41.90
2018-02-23T18:10:29.505Z,42.00
2018-02-23T18:12:56.950Z,41.90
2018-02-23T18:15:24.385Z,42.00
2018-02-23T18:17:52.592Z,41.70
2018-02-23T18:20:20.071Z,41.60
2018-02-23T18:22:47.537Z,41.70
2018-02-23T18:25:14.958Z,41.80
2018-02-23T18:27:43.161Z,41.70
2018-02-23T18:30:10.605Z,41.60
2018-02-23T18:32:38.072Z,41.70
2018-02-23T18:35:06.270Z,41.60
2018-02-23T18:37:33.722Z,41.60
2018-02-23T18:40:01.152Z,41.80
2018-02-23T18:42:28.592Z,41.90
2018-02-23T18:44:56.032Z,41.80
2018-02-23T18:47:23.491Z,41.70
2018-02-23T18:49:50.928Z,41.60
2018-02-23T18:52:18.372Z,42.00
2018-02-23T18:54:46.583Z,42.10
2018-02-23T18:57:14.013Z,42.10
2018-02-23T18:59:42.222Z,42.10
2018-02-23T19:02:09.694Z,42.00
2018-02-23T19:04:37.124Z,42.10
2018-02-23T19:07:05.336Z,42.20
2018-02-23T19:09:32.777Z,42.10
2018-02-23T19:12:00.239Z,42.20
2018-02-23T19:14:27.692Z,42.10
2018-02-23T19:16:55.904Z,42.00
2018-02-23T19:19:23.325Z,41.90
2018-02-23T19:21:51.557Z,42.30
2018-02-23T19:24:18.971Z,42.20
2018-02-23T19:26:47.194Z,42.30
2018-02-23T19:29:14.647Z,42.20
2018-02-23T19:31:42.080Z,42.20
2018-02-23T19:34:10.285Z,41.70
2018-02-23T19:36:37.750Z,41.70
2018-02-23T19:39:05.180Z,41.90
2018-02-23T19:41:33.393Z,42.30
2018-02-23T19:44:00.841Z,42.30
2018-02-23T19:46:28.292Z,42.10
2018-02-23T19:48:55.753Z,42.20
2018-02-23T19:51:23.963Z,42.00
2018-02-23T19:53:51.427Z,42.00
2018-02-23T19:56:18.886Z,42.10
2018-02-23T19:58:46.324Z,41.40
2018-02-23T20:01:13.766Z,41.60
2018-02-23T20:03:41.983Z,40.90
2018-02-23T20:06:09.413Z,40.90
2018-02-23T20:08:37.638Z,41.50
2018-02-23T20:11:05.074Z,42.10
2018-02-23T20:13:32.531Z,41.80
2018-02-23T20:15:59.971Z,41.40
2018-02-23T20:18:28.177Z,40.80
2018-02-23T20:20:55.663Z,40.80
2018-02-23T20:23:23.821Z,40.30
2018-02-23T20:25:51.262Z,40.30
2018-02-23T20:28:19.461Z,40.80
2018-02-23T20:30:46.907Z,40.70
2018-02-23T20:33:15.128Z,40.50
2018-02-23T20:35:42.559Z,40.50
2018-02-23T20:38:10.019Z,40.80
2018-02-23T20:40:37.450Z,41.10
2018-02-23T20:43:04.894Z,41.20
2018-02-23T20:45:32.390Z,40.00
2018-02-23T20:47:59.791Z,40.50
2018-02-23T20:50:27.243Z,40.50
2018-02-23T20:52:54.698Z,40.80
2018-02-23T20:55:22.133Z,40.50
2018-02-23T20:57:49.587Z,40.40
2018-02-23T21:00:17.030Z,40.40
2018-02-23T21:02:45.233Z,40.40
2018-02-23T21:05:12.675Z,40.40
2018-02-23T21:07:40.117Z,40.70
2018-02-23T21:10:07.590Z,40.50
2018-02-23T21:12:43.280Z,40.60
2018-02-23T21:15:21.985Z,40.50
2018-02-23T21:18:03.112Z,41.00
2018-02-23T21:20:56.377Z,40.60
2018-02-23T21:23:23.813Z,40.60
2018-02-23T21:25:51.245Z,40.70
2018-02-23T21:28:18.852Z,40.80
2018-02-23T21:30:46.409Z,40.70
2018-02-23T21:33:13.924Z,40.40
2018-02-23T21:35:41.420Z,39.60
2018-02-23T21:38:09.049Z,40.20
2018-02-23T21:40:36.621Z,40.50
2018-02-23T21:43:04.244Z,40.50
2018-02-23T21:45:32.624Z,40.30
2018-02-23T21:48:00.885Z,40.90
2018-02-23T21:50:28.380Z,40.90
2018-02-23T21:52:55.855Z,41.00
2018-02-23T21:55:23.375Z,41.20
2018-02-23T21:57:51.619Z,41.30
2018-02-23T22:00:19.149Z,41.20
2018-02-23T22:02:46.706Z,41.40
2018-02-23T22:05:14.286Z,41.30
2018-02-23T22:07:41.780Z,41.50
2018-02-23T22:10:09.395Z,41.50
2018-02-23T22:12:37.758Z,41.70
2018-02-23T22:15:05.379Z,41.70
2018-02-23T22:17:32.913Z,41.80
2018-02-23T22:20:00.481Z,41.90
2018-02-23T22:22:28.050Z,42.60
2018-02-23T22:24:55.641Z,42.00
2018-02-23T22:27:23.929Z,42.10
2018-02-23T22:29:51.507Z,42.10
2018-02-23T22:32:19.039Z,42.00
2018-02-23T22:34:47.465Z,42.20
2018-02-23T22:37:15.117Z,42.20
2018-02-23T22:39:42.655Z,42.40
2018-02-23T22:42:10.805Z,42.50
2018-02-23T22:44:39.170Z,42.30
2018-02-23T22:47:06.709Z,42.20
2018-02-23T22:49:34.280Z,42.60
2018-02-23T22:52:01.747Z,42.50
2018-02-23T22:54:29.339Z,42.60
2018-02-23T22:56:56.932Z,42.50
2018-02-23T22:59:24.591Z,42.50
2018-02-23T23:01:52.104Z,42.60
2018-02-23T23:04:20.462Z,42.80
2018-02-23T23:06:47.932Z,42.70
2018-02-23T23:09:15.439Z,42.90
2018-02-23T23:11:42.882Z,42.80
2018-02-23T23:14:10.310Z,43.00
2018-02-23T23:16:37.808Z,43.20
2018-02-23T23:19:05.255Z,43.20
2018-02-23T23:21:32.690Z,43.20
2018-02-23T23:24:00.139Z,43.20
2018-02-23T23:26:28.348Z,43.30
2018-02-23T23:28:55.775Z,43.40
2018-02-23T23:31:23.228Z,43.40
2018-02-23T23:33:51.437Z,43.20
2018-02-23T23:36:18.897Z,43.10
2018-02-23T23:38:46.355Z,43.50
2018-02-23T23:41:13.821Z,43.70
2018-02-23T23:43:41.328Z,43.60
2018-02-23T23:46:09.554Z,43.80
2018-02-23T23:48:37.224Z,43.70
2018-02-23T23:51:04.660Z,43.80
2018-02-23T23:53:32.127Z,43.80
2018-02-23T23:55:59.578Z,43.90
2018-02-23T23:58:27.011Z,43.70
